createdAt,value
2022-10-10T00:00:38.579Z,3.30
2022-10-10T00:03:05.482Z,3.03
2022-10-10T00:05:31.949Z,3.60
2022-10-10T00:07:58.446Z,2.97
2022-10-10T00:10:25.164Z,2.20
2022-10-10T00:12:52.040Z,2.90
2022-10-10T00:15:18.990Z,2.57
2022-10-10T00:17:45.511Z,2.60
2022-10-10T00:20:12.965Z,2.80
2022-10-10T00:22:39.512Z,2.50
2022-10-10T00:25:07.188Z,2.63
2022-10-10T00:27:33.681Z,2.30
2022-10-10T00:30:00.192Z,2.67
2022-10-10T00:32:26.680Z,2.20
2022-10-10T00:34:53.280Z,2.80
2022-10-10T00:37:19.750Z,5.00
2022-10-10T00:39:46.253Z,2.40
2022-10-10T00:42:13.738Z,2.63
2022-10-10T00:44:41.155Z,2.57
2022-10-10T00:47:07.733Z,2.37
2022-10-10T00:49:34.557Z,2.73
2022-10-10T00:52:01.103Z,2.47
2022-10-10T00:54:27.654Z,2.63
2022-10-10T00:57:03.420Z,2.20
2022-10-10T00:59:31.579Z,2.40
2022-10-10T01:01:58.262Z,2.33
2022-10-10T01:04:45.636Z,2.20
2022-10-10T01:07:20.228Z,2.37
2022-10-10T01:09:46.759Z,3.07
2022-10-10T01:12:27.287Z,2.30
2022-10-10T01:15:08.984Z,3.80
2022-10-10T01:17:41.247Z,2.70
2022-10-10T01:20:22.785Z,6.60
2022-10-10T01:23:07.841Z,2.10
2022-10-10T01:25:34.228Z,2.60
2022-10-10T01:28:26.434Z,2.30
2022-10-10T01:30:52.938Z,3.47
2022-10-10T01:33:29.699Z,2.73
2022-10-10T01:36:27.840Z,2.37
2022-10-10T01:39:08.011Z,2.57
2022-10-10T01:41:38.556Z,2.73
2022-10-10T01:44:05.054Z,2.20
2022-10-10T01:46:32.056Z,2.20
2022-10-10T01:48:58.606Z,2.50
2022-10-10T01:51:53.815Z,2.27
2022-10-10T01:54:36.420Z,2.33
2022-10-10T01:57:41.751Z,2.47
2022-10-10T02:00:17.515Z,2.70
2022-10-10T02:03:00.141Z,2.73
2022-10-10T02:05:43.945Z,2.73
2022-10-10T02:08:14.837Z,2.60
2022-10-10T02:10:44.784Z,2.20
2022-10-10T02:13:11.704Z,2.00
2022-10-10T02:15:44.756Z,2.20
2022-10-10T02:18:11.746Z,2.03
2022-10-10T02:20:38.252Z,2.20
2022-10-10T02:23:05.434Z,2.60
2022-10-10T02:25:33.507Z,2.87
2022-10-10T02:28:08.384Z,2.20
2022-10-10T02:30:35.630Z,2.30
2022-10-10T02:33:02.186Z,2.10
2022-10-10T02:35:31.900Z,2.30
2022-10-10T02:37:59.352Z,4.17
2022-10-10T02:40:28.094Z,2.37
2022-10-10T02:42:54.758Z,2.37
2022-10-10T02:45:21.342Z,2.60
2022-10-10T02:47:47.811Z,2.77
2022-10-10T02:50:14.334Z,3.00
2022-10-10T02:52:41.058Z,2.30
2022-10-10T02:55:07.873Z,2.27
2022-10-10T02:57:34.343Z,2.20
2022-10-10T03:00:01.717Z,2.27
2022-10-10T03:02:28.230Z,2.10
2022-10-10T03:04:54.713Z,2.33
2022-10-10T03:07:21.216Z,1.97
2022-10-10T03:09:47.748Z,2.10
2022-10-10T03:12:14.211Z,2.20
2022-10-10T03:14:40.702Z,1.80
2022-10-10T03:17:07.251Z,2.10
2022-10-10T03:19:33.740Z,1.93
2022-10-10T03:22:00.201Z,2.50
2022-10-10T03:24:26.931Z,2.77
2022-10-10T03:26:53.444Z,2.83
2022-10-10T03:29:19.907Z,2.20
2022-10-10T03:31:46.417Z,2.30
2022-10-10T03:34:12.919Z,3.23
2022-10-10T03:36:39.415Z,2.10
2022-10-10T03:39:05.991Z,2.33
2022-10-10T03:41:32.472Z,2.00
2022-10-10T03:43:58.966Z,1.90
2022-10-10T03:46:25.520Z,2.47
2022-10-10T03:48:51.983Z,2.07
2022-10-10T03:51:18.568Z,2.00
2022-10-10T03:53:45.074Z,2.23
2022-10-10T03:56:11.679Z,2.50
2022-10-10T03:58:38.216Z,2.20
2022-10-10T04:01:04.979Z,2.43
2022-10-10T04:03:31.591Z,2.00
2022-10-10T04:05:58.087Z,5.23
2022-10-10T04:08:24.799Z,3.73
2022-10-10T04:10:51.836Z,2.27
2022-10-10T04:13:18.507Z,2.30
2022-10-10T04:15:45.013Z,3.40
2022-10-10T04:18:11.575Z,2.10
2022-10-10T04:20:38.071Z,3.10
2022-10-10T04:23:04.558Z,2.60
2022-10-10T04:25:31.195Z,2.57
2022-10-10T04:28:01.059Z,3.70
2022-10-10T04:30:30.165Z,2.90
2022-10-10T04:32:56.668Z,4.43
2022-10-10T04:35:23.128Z,3.30
2022-10-10T04:37:49.640Z,4.60
2022-10-10T04:40:16.247Z,5.03
2022-10-10T04:42:42.783Z,3.47
2022-10-10T04:45:09.663Z,2.63
2022-10-10T04:47:36.185Z,3.47
2022-10-10T04:50:02.714Z,2.73
2022-10-10T04:52:29.214Z,4.63
2022-10-10T04:54:55.691Z,6.13
2022-10-10T04:57:22.280Z,4.80
2022-10-10T04:59:48.763Z,8.47
2022-10-10T05:02:15.255Z,7.30
2022-10-10T05:04:41.748Z,10.67
2022-10-10T05:07:08.261Z,12.27
2022-10-10T05:09:35.776Z,17.43
2022-10-10T05:12:02.331Z,9.90
2022-10-10T05:14:28.974Z,10.07
2022-10-10T05:16:55.480Z,12.73
2022-10-10T05:19:22.020Z,11.23
2022-10-10T05:21:48.676Z,10.27
2022-10-10T05:24:15.170Z,12.20
2022-10-10T05:26:43.359Z,9.13
2022-10-10T05:29:10.000Z,8.73
2022-10-10T05:31:36.542Z,11.67
2022-10-10T05:34:03.063Z,9.97
2022-10-10T05:36:29.541Z,8.23
2022-10-10T05:38:56.154Z,11.07
2022-10-10T05:41:22.624Z,8.17
2022-10-10T05:43:49.182Z,6.87
2022-10-10T05:46:15.656Z,6.67
2022-10-10T05:48:42.149Z,7.83
2022-10-10T05:51:08.667Z,9.27
2022-10-10T05:53:35.228Z,6.27
2022-10-10T05:56:02.032Z,9.80
2022-10-10T05:58:28.588Z,6.80
2022-10-10T06:00:55.071Z,7.17
2022-10-10T06:03:21.600Z,19.33
2022-10-10T06:05:50.473Z,15.73
2022-10-10T06:08:16.946Z,13.70
2022-10-10T06:10:44.428Z,11.33
2022-10-10T06:13:11.680Z,12.63
2022-10-10T06:15:38.182Z,11.53
2022-10-10T06:18:05.346Z,13.33
2022-10-10T06:20:34.880Z,11.60
2022-10-10T06:23:01.959Z,11.93
2022-10-10T06:25:40.009Z,15.07
2022-10-10T06:28:07.403Z,15.77
2022-10-10T06:30:35.184Z,9.53
2022-10-10T06:33:01.935Z,19.30
2022-10-10T06:35:28.523Z,22.67
2022-10-10T06:37:55.062Z,20.63
2022-10-10T06:40:21.541Z,16.67
2022-10-10T06:42:48.220Z,18.57
2022-10-10T06:45:14.882Z,15.40
2022-10-10T06:47:42.041Z,19.73
2022-10-10T06:50:08.879Z,15.60
2022-10-10T06:52:35.356Z,16.83
2022-10-10T06:55:01.877Z,15.10
2022-10-10T06:57:28.657Z,17.57
2022-10-10T06:59:55.158Z,21.57
2022-10-10T07:02:23.143Z,24.17
2022-10-10T07:04:49.657Z,23.17
2022-10-10T07:07:16.198Z,22.57
2022-10-10T07:09:42.720Z,19.83
2022-10-10T07:12:10.112Z,21.23
2022-10-10T07:14:36.612Z,20.20
2022-10-10T07:17:03.238Z,19.93
2022-10-10T07:19:29.745Z,21.83
2022-10-10T07:21:56.215Z,21.20
2022-10-10T07:24:22.804Z,18.97
2022-10-10T07:26:49.952Z,17.77
2022-10-10T07:29:16.474Z,18.53
2022-10-10T07:31:42.959Z,14.00
2022-10-10T07:34:09.561Z,17.77
2022-10-10T07:36:36.092Z,17.07
2022-10-10T07:39:02.646Z,15.27
2022-10-10T07:41:29.138Z,15.07
2022-10-10T07:43:56.065Z,13.13
2022-10-10T07:46:22.575Z,14.00
2022-10-10T07:48:49.298Z,13.00
2022-10-10T07:51:15.933Z,13.97
2022-10-10T07:53:44.088Z,13.67
2022-10-10T07:56:10.621Z,11.37
2022-10-10T07:58:37.233Z,13.93
2022-10-10T08:01:04.916Z,14.77
2022-10-10T08:03:31.472Z,13.73
2022-10-10T08:05:58.035Z,12.20
2022-10-10T08:08:24.593Z,13.40
2022-10-10T08:10:51.160Z,11.17
2022-10-10T08:13:17.667Z,12.07
2022-10-10T08:15:44.188Z,11.17
2022-10-10T08:18:10.782Z,12.30
2022-10-10T08:20:37.316Z,12.90
2022-10-10T08:23:03.829Z,13.00
2022-10-10T08:25:30.351Z,10.83
2022-10-10T08:27:56.850Z,11.33
2022-10-10T08:30:23.311Z,11.73
2022-10-10T08:32:50.076Z,12.57
2022-10-10T08:35:16.951Z,10.60
2022-10-10T08:37:43.435Z,11.77
2022-10-10T08:40:14.613Z,9.37
2022-10-10T08:42:48.874Z,10.03
2022-10-10T08:45:21.217Z,10.27
2022-10-10T08:48:01.568Z,9.00
2022-10-10T08:50:31.511Z,9.53
2022-10-10T08:53:02.108Z,7.97
2022-10-10T08:55:33.165Z,8.97
2022-10-10T08:58:09.762Z,9.87
2022-10-10T09:00:41.806Z,11.27
2022-10-10T09:03:39.546Z,7.90
2022-10-10T09:06:05.996Z,9.37
2022-10-10T09:09:17.429Z,6.87
2022-10-10T09:12:14.156Z,6.67
2022-10-10T09:15:11.930Z,9.30
2022-10-10T09:17:45.442Z,8.47
2022-10-10T09:20:48.356Z,9.10
2022-10-10T09:23:42.758Z,7.40
2022-10-10T09:26:13.203Z,9.00
2022-10-10T09:28:57.553Z,7.20
2022-10-10T09:31:28.706Z,6.37
2022-10-10T09:34:01.635Z,7.73
2022-10-10T09:36:34.047Z,6.83
2022-10-10T09:39:25.265Z,9.83
2022-10-10T09:41:58.294Z,6.37
2022-10-10T09:44:24.761Z,6.83
2022-10-10T09:46:51.636Z,7.20
2022-10-10T09:49:19.178Z,7.97
2022-10-10T09:51:46.010Z,7.30
2022-10-10T09:54:14.223Z,6.97
2022-10-10T09:56:44.495Z,6.17
2022-10-10T09:59:42.884Z,8.27
2022-10-10T10:02:17.981Z,7.47
2022-10-10T10:04:44.803Z,7.10
2022-10-10T10:07:20.378Z,9.20
2022-10-10T10:09:51.087Z,7.63
2022-10-10T10:12:22.815Z,5.87
2022-10-10T10:14:49.362Z,6.73
2022-10-10T10:17:18.789Z,5.97
2022-10-10T10:19:46.144Z,7.20
2022-10-10T10:22:26.874Z,5.57
2022-10-10T10:24:53.651Z,5.90
2022-10-10T10:27:21.707Z,6.77
2022-10-10T10:29:52.764Z,5.63
2022-10-10T10:32:31.524Z,6.50
2022-10-10T10:35:19.484Z,5.37
2022-10-10T10:38:12.420Z,5.67
2022-10-10T10:40:44.952Z,7.30
2022-10-10T10:43:44.735Z,5.97
2022-10-10T10:46:29.471Z,5.43
2022-10-10T10:49:03.119Z,5.47
2022-10-10T10:52:02.555Z,5.30
2022-10-10T10:55:09.653Z,5.07
2022-10-10T10:57:51.150Z,5.17
2022-10-10T11:01:22.279Z,5.97
2022-10-10T11:03:27.758Z,6.03
2022-10-10T11:06:05.682Z,4.57
2022-10-10T11:08:47.341Z,5.23
2022-10-10T11:11:14.165Z,4.23
2022-10-10T11:13:49.964Z,4.30
2022-10-10T11:16:46.920Z,5.03
2022-10-10T11:19:15.096Z,5.70
2022-10-10T11:21:46.397Z,5.70
2022-10-10T11:24:34.140Z,4.10
2022-10-10T11:27:02.304Z,6.17
2022-10-10T11:29:32.685Z,4.97
2022-10-10T11:32:11.507Z,4.03
2022-10-10T11:35:06.135Z,8.67
2022-10-10T11:37:34.251Z,3.77
2022-10-10T11:40:03.615Z,8.23
2022-10-10T11:42:33.422Z,4.70
2022-10-10T11:45:14.642Z,4.33
2022-10-10T11:48:04.153Z,4.80
2022-10-10T11:50:40.976Z,4.50
2022-10-10T11:53:33.301Z,3.70
2022-10-10T11:56:34.669Z,7.50
2022-10-10T11:59:05.980Z,3.53
2022-10-10T12:01:41.478Z,4.80
2022-10-10T12:04:08.215Z,4.13
2022-10-10T12:06:38.973Z,3.67
2022-10-10T12:09:14.760Z,3.90
2022-10-10T12:11:45.407Z,4.50
2022-10-10T12:14:15.697Z,4.40
2022-10-10T12:16:42.187Z,4.33
2022-10-10T12:19:16.412Z,3.73
2022-10-10T12:21:58.161Z,4.00
2022-10-10T12:24:26.115Z,3.97
2022-10-10T12:26:52.464Z,3.67
2022-10-10T12:29:40.808Z,3.53
2022-10-10T12:32:13.359Z,4.00
2022-10-10T12:34:56.048Z,4.07
2022-10-10T12:37:26.377Z,3.90
2022-10-10T12:40:08.112Z,4.10
2022-10-10T12:42:58.368Z,4.90
2022-10-10T12:45:31.191Z,3.27
2022-10-10T12:48:06.342Z,4.20
2022-10-10T12:50:37.762Z,4.37
2022-10-10T12:53:05.883Z,4.20
2022-10-10T12:55:40.321Z,3.73
2022-10-10T12:58:12.183Z,4.03
2022-10-10T13:00:44.543Z,3.67
2022-10-10T13:03:20.179Z,3.37
2022-10-10T13:05:46.807Z,3.50
2022-10-10T13:08:15.571Z,3.83
2022-10-10T13:10:42.026Z,4.90
2022-10-10T13:13:19.327Z,3.57
2022-10-10T13:15:56.381Z,3.53
2022-10-10T13:18:40.025Z,5.17
2022-10-10T13:21:11.844Z,3.70
2022-10-10T13:23:41.588Z,3.37
2022-10-10T13:26:23.478Z,3.93
2022-10-10T13:28:53.924Z,4.03
2022-10-10T13:31:20.496Z,3.13
2022-10-10T13:33:47.020Z,4.50
2022-10-10T13:36:20.926Z,3.13
2022-10-10T13:38:48.567Z,3.57
2022-10-10T13:41:17.561Z,3.83
2022-10-10T13:43:44.071Z,4.33
2022-10-10T13:46:23.658Z,3.20
2022-10-10T13:48:52.718Z,3.83
2022-10-10T13:51:20.298Z,2.93
2022-10-10T13:53:53.308Z,3.30
2022-10-10T13:56:25.266Z,3.93
2022-10-10T13:58:52.519Z,3.60
2022-10-10T14:01:37.933Z,4.17
2022-10-10T14:04:13.202Z,3.20
2022-10-10T14:06:40.295Z,2.97
2022-10-10T14:09:15.883Z,3.77
2022-10-10T14:11:43.191Z,3.10
2022-10-10T14:14:25.399Z,2.63
2022-10-10T14:17:02.058Z,3.67
2022-10-10T14:19:29.155Z,3.73
2022-10-10T14:21:55.618Z,3.13
2022-10-10T14:24:22.128Z,3.07
2022-10-10T14:26:48.648Z,4.13
2022-10-10T14:29:15.996Z,3.70
2022-10-10T14:31:43.036Z,2.97
2022-10-10T14:34:10.806Z,4.67
2022-10-10T14:36:48.385Z,10.57
2022-10-10T14:39:15.928Z,11.30
2022-10-10T14:41:42.556Z,10.57
2022-10-10T14:44:09.328Z,9.07
2022-10-10T14:46:36.015Z,9.80
2022-10-10T14:49:02.514Z,6.00
2022-10-10T14:51:34.065Z,9.27
2022-10-10T14:54:10.773Z,11.60
2022-10-10T14:57:09.575Z,10.10
2022-10-10T14:59:46.181Z,6.97
2022-10-10T15:02:14.797Z,5.73
2022-10-10T15:04:41.472Z,10.20
2022-10-10T15:07:14.706Z,7.50
2022-10-10T15:09:56.848Z,6.07
2022-10-10T15:12:29.744Z,5.90
2022-10-10T15:14:56.262Z,7.20
2022-10-10T15:17:24.321Z,6.47
2022-10-10T15:19:50.892Z,9.47
2022-10-10T15:22:17.429Z,6.40
2022-10-10T15:24:43.941Z,9.17
2022-10-10T15:27:10.433Z,5.73
2022-10-10T15:29:38.726Z,5.93
2022-10-10T15:32:05.626Z,6.03
2022-10-10T15:34:32.154Z,4.40
2022-10-10T15:36:58.654Z,5.53
2022-10-10T15:39:25.201Z,4.47
2022-10-10T15:41:51.674Z,4.63
2022-10-10T15:44:18.504Z,4.70
2022-10-10T15:46:45.123Z,5.00
2022-10-10T15:49:12.147Z,5.20
2022-10-10T15:51:38.771Z,6.00
2022-10-10T15:54:05.268Z,6.70
2022-10-10T15:56:31.751Z,5.93
2022-10-10T15:58:58.690Z,5.57
2022-10-10T16:01:25.327Z,4.30
2022-10-10T16:03:51.891Z,6.90
2022-10-10T16:06:19.061Z,4.47
2022-10-10T16:08:45.667Z,4.73
2022-10-10T16:11:13.948Z,5.43
2022-10-10T16:13:40.830Z,3.90
2022-10-10T16:16:09.604Z,4.63
2022-10-10T16:18:40.314Z,3.23
2022-10-10T16:21:11.740Z,3.73
2022-10-10T16:23:38.330Z,5.40
2022-10-10T16:26:06.831Z,4.93
2022-10-10T16:28:33.624Z,3.60
2022-10-10T16:31:07.001Z,5.07
2022-10-10T16:33:36.952Z,4.27
2022-10-10T16:36:20.122Z,4.17
2022-10-10T16:38:46.818Z,5.17
2022-10-10T16:41:29.142Z,7.20
2022-10-10T16:44:01.703Z,4.43
2022-10-10T16:46:28.214Z,5.00
2022-10-10T16:48:57.471Z,3.10
2022-10-10T16:51:24.026Z,3.57
2022-10-10T16:53:50.866Z,4.07
2022-10-10T16:56:18.355Z,3.57
2022-10-10T16:58:44.907Z,3.83
2022-10-10T17:01:14.161Z,3.67
2022-10-10T17:03:41.065Z,5.23
2022-10-10T17:06:09.814Z,5.97
2022-10-10T17:08:36.354Z,5.83
2022-10-10T17:11:03.126Z,6.17
2022-10-10T17:13:31.209Z,3.40
2022-10-10T17:16:08.766Z,5.60
2022-10-10T17:18:44.423Z,5.63
2022-10-10T17:21:16.541Z,3.60
2022-10-10T17:23:43.267Z,3.90
2022-10-10T17:26:11.229Z,5.10
2022-10-10T17:28:37.860Z,3.57
2022-10-10T17:31:12.290Z,7.47
2022-10-10T17:33:38.965Z,3.97
2022-10-10T17:36:13.124Z,5.50
2022-10-10T17:38:40.476Z,6.57
2022-10-10T17:41:07.371Z,6.20
2022-10-10T17:43:34.003Z,4.17
2022-10-10T17:46:29.460Z,4.47
2022-10-10T17:48:54.572Z,5.93
2022-10-10T17:51:24.049Z,4.07
2022-10-10T17:53:50.868Z,3.87
2022-10-10T17:56:19.552Z,4.87
2022-10-10T17:58:46.106Z,3.60
2022-10-10T18:01:13.773Z,3.77
2022-10-10T18:03:40.500Z,3.90
2022-10-10T18:06:08.268Z,3.40
2022-10-10T18:08:35.217Z,4.13
2022-10-10T18:11:02.359Z,6.67
2022-10-10T18:13:29.031Z,4.20
2022-10-10T18:16:14.732Z,3.70
2022-10-10T18:18:41.387Z,3.70
2022-10-10T18:21:08.491Z,4.13
2022-10-10T18:23:35.174Z,6.07
2022-10-10T18:26:02.625Z,4.40
2022-10-10T18:28:36.703Z,3.73
2022-10-10T18:31:12.386Z,5.17
2022-10-10T18:33:40.000Z,4.73
2022-10-10T18:36:07.646Z,3.87
2022-10-10T18:38:34.205Z,4.23
2022-10-10T18:41:08.246Z,4.20
2022-10-10T18:43:35.164Z,3.17
2022-10-10T18:46:01.948Z,4.03
2022-10-10T18:48:28.496Z,4.00
2022-10-10T18:51:08.438Z,3.37
2022-10-10T18:53:39.331Z,3.10
2022-10-10T18:56:06.215Z,4.27
2022-10-10T18:58:33.563Z,3.47
2022-10-10T19:01:01.418Z,3.47
2022-10-10T19:03:28.239Z,3.30
2022-10-10T19:05:54.839Z,3.67
2022-10-10T19:08:21.312Z,3.23
2022-10-10T19:10:48.523Z,3.03
2022-10-10T19:13:15.230Z,2.70
2022-10-10T19:15:41.723Z,4.23
2022-10-10T19:18:08.351Z,4.50
2022-10-10T19:20:35.554Z,2.80
2022-10-10T19:23:02.338Z,3.20
2022-10-10T19:25:30.714Z,3.07
2022-10-10T19:27:57.431Z,3.03
2022-10-10T19:30:23.950Z,2.57
2022-10-10T19:32:50.482Z,2.63
2022-10-10T19:35:17.068Z,2.60
2022-10-10T19:37:43.543Z,3.03
2022-10-10T19:40:10.491Z,3.17
2022-10-10T19:42:37.036Z,3.13
2022-10-10T19:45:03.836Z,2.67
2022-10-10T19:47:30.345Z,2.47
2022-10-10T19:49:56.975Z,2.80
2022-10-10T19:52:23.479Z,2.80
2022-10-10T19:54:49.964Z,2.43
2022-10-10T19:57:16.455Z,3.83
2022-10-10T19:59:42.992Z,2.57
2022-10-10T20:02:10.892Z,2.57
2022-10-10T20:04:37.366Z,2.70
2022-10-10T20:07:03.862Z,2.60
2022-10-10T20:09:30.574Z,2.63
2022-10-10T20:11:57.110Z,2.67
2022-10-10T20:14:23.596Z,2.77
2022-10-10T20:16:50.348Z,2.93
2022-10-10T20:19:16.811Z,2.83
2022-10-10T20:21:43.299Z,2.90
2022-10-10T20:24:09.892Z,3.53
2022-10-10T20:26:36.465Z,2.50
2022-10-10T20:29:03.192Z,3.37
2022-10-10T20:31:30.847Z,3.63
2022-10-10T20:33:58.624Z,2.40
2022-10-10T20:36:25.199Z,2.60
2022-10-10T20:38:55.421Z,2.87
2022-10-10T20:41:22.783Z,2.90
2022-10-10T20:43:49.255Z,2.40
2022-10-10T20:46:15.782Z,2.53
2022-10-10T20:48:42.384Z,2.50
2022-10-10T20:51:12.440Z,2.80
2022-10-10T20:53:41.782Z,2.70
2022-10-10T20:56:09.951Z,2.60
2022-10-10T20:58:36.984Z,2.37
2022-10-10T21:01:10.610Z,2.97
2022-10-10T21:03:37.517Z,2.83
2022-10-10T21:06:15.297Z,2.77
2022-10-10T21:08:42.032Z,2.60
2022-10-10T21:11:10.165Z,3.37
2022-10-10T21:13:37.479Z,2.70
2022-10-10T21:16:12.567Z,2.70
2022-10-10T21:18:39.608Z,2.60
2022-10-10T21:21:06.230Z,2.70
2022-10-10T21:23:34.726Z,2.70
2022-10-10T21:26:11.310Z,3.07
2022-10-10T21:28:37.918Z,4.77
2022-10-10T21:31:05.027Z,3.60
2022-10-10T21:33:31.657Z,2.67
2022-10-10T21:35:58.320Z,3.00
2022-10-10T21:38:25.075Z,3.00
2022-10-10T21:40:51.824Z,3.00
2022-10-10T21:43:18.343Z,3.40
2022-10-10T21:45:44.888Z,2.60
2022-10-10T21:48:11.755Z,2.60
2022-10-10T21:50:38.579Z,4.47
2022-10-10T21:53:06.463Z,2.97
2022-10-10T21:55:33.504Z,2.70
2022-10-10T21:58:00.031Z,2.47
2022-10-10T22:00:26.569Z,2.70
2022-10-10T22:02:53.074Z,2.30
2022-10-10T22:05:19.580Z,2.40
2022-10-10T22:07:46.187Z,2.73
2022-10-10T22:10:14.849Z,2.73
2022-10-10T22:12:44.232Z,2.57
2022-10-10T22:15:12.254Z,2.80
2022-10-10T22:17:38.883Z,2.70
2022-10-10T22:20:06.367Z,2.77
2022-10-10T22:22:40.095Z,2.60
2022-10-10T22:25:10.693Z,2.50
2022-10-10T22:27:37.203Z,2.53
2022-10-10T22:30:05.303Z,2.50
2022-10-10T22:32:31.882Z,2.80
2022-10-10T22:34:58.472Z,3.03
2022-10-10T22:37:24.976Z,2.60
2022-10-10T22:39:51.463Z,2.60
2022-10-10T22:42:18.011Z,2.70
2022-10-10T22:44:44.511Z,2.83
2022-10-10T22:47:11.050Z,3.10
2022-10-10T22:49:38.061Z,2.70
2022-10-10T22:52:08.670Z,2.70
2022-10-10T22:54:35.196Z,2.60
2022-10-10T22:57:01.870Z,3.10
2022-10-10T22:59:28.611Z,3.63
2022-10-10T23:01:55.223Z,2.60
2022-10-10T23:04:22.547Z,2.50
2022-10-10T23:06:49.511Z,3.00
2022-10-10T23:09:16.163Z,2.97
2022-10-10T23:11:42.668Z,2.80
2022-10-10T23:14:09.178Z,2.60
2022-10-10T23:16:39.689Z,2.90
2022-10-10T23:19:07.159Z,2.60
2022-10-10T23:21:33.635Z,2.90
2022-10-10T23:24:00.173Z,2.83
2022-10-10T23:26:26.688Z,3.37
2022-10-10T23:28:53.264Z,2.53
2022-10-10T23:31:19.833Z,3.50
2022-10-10T23:33:46.352Z,3.10
2022-10-10T23:36:13.651Z,3.47
2022-10-10T23:38:40.736Z,2.90
2022-10-10T23:41:08.090Z,2.90
2022-10-10T23:43:34.589Z,2.90
2022-10-10T23:46:01.362Z,2.83
2022-10-10T23:48:28.100Z,3.40
2022-10-10T23:50:54.580Z,2.70
2022-10-10T23:53:21.108Z,3.10
2022-10-10T23:55:47.703Z,2.97
2022-10-10T23:58:14.840Z,2.60
